Sarasota, FL

04:46 EDT le 01 novembre 2014 (GMT -0400)
Hidden Oaks West | Change Station
CLOSE
Current Station
Stations météorologiques personnelles
Location: Sarasota, FL
Altitude: 39 ft
Stations météo à proximité

Alt. 39 ft 27.32 °N, 82.48 °W | Updated 0 second ago

Ciel dégagé
Ciel dégagé
63.9 ° F
Paraît 63.9 ° F
N
0.0
Vent Variable Vent de NNE
Gusts 0.0 mph

Aujourd'hui
Haut(e) -- | Bas -- ° F
--% Risque de précip.
Hier
Haut(e) -- | Bas -- ° F
Precip. -- pouce
7:40 AM 6:46 PM
Lune gibbeuse croissante, 64% visible
Pression 29.89 pouce
Visibilité 10.0 Miles terrestres
Nuages Peu 10000 ft
Point de rosée 56 ° F
Humidité 77%
Précipitations 0.00 pouce
Profondeur de la couche neigeuse Non disponible.
UV 0 sur 12
Pollen 4.90 sur 12
Qualité de l'air Non disponible.
Flu Activity Non disponible.
METAR KSRQ 010753Z 32009KT 10SM FEW100 20/09 A2989 RMK AO2 SLP122 T02000089

More Conditions Fewer Conditions

Pression 29.89 pouce
Visibilité 10.0 Miles terrestres
Nuages Peu 10000 ft
Point de rosée 56 ° F
Humidité 77%
Précipitations 0.00 pouce
Profondeur de la couche neigeuse Non disponible.
UV 0 sur 12
Pollen 4.90 sur 12
Qualité de l'air Non disponible.
Flu Activity Non disponible.
METAR KSRQ 010753Z 32009KT 10SM FEW100 20/09 A2989 RMK AO2 SLP122 T02000089

More Conditions Fewer Conditions

10-Day Weather Forecast

Almanac

Astronomie

Nov. 01, 2014 Lever Coucher
Temps réel
Crépuscule civil
Crépuscule nautique
Crépuscule astronomique
Lune
Durée de lumière visible
Longueur du jour
Tomorrow will be .
, % of the Moon is Illuminated

Extrêmes aujourd'hui

State Highs State Lows

Community

WunderPhotos

Upload Photos

1,766,871 Photos téléchargées !

WunderBlogs® & News

Nearby

Qualité de l'air

  Qualité de l'air Indice de la qualité de l'air Polluant
Not available.

Épaisseur de neige

Station Depth Altitude

Activité sismique

Ville Distance Mag. Time & Date
Minimum magnitude displayed is 2.5.

Températures des eaux côtières

Lieu Température

Stations météo à proximité